sensor_id;sensor_type;location;lat;lon;timestamp;P1;durP1;ratioP1;P2;durP2;ratioP2
34491;SDS011;20737;49.908;8.126;2023-05-02T00:01:41;5.05;;;4.18;;
34491;SDS011;20737;49.908;8.126;2023-05-02T00:04:08;7.25;;;5.30;;
34491;SDS011;20737;49.908;8.126;2023-05-02T00:06:36;5.75;;;4.63;;
34491;SDS011;20737;49.908;8.126;2023-05-02T00:09:03;7.93;;;5.00;;
34491;SDS011;20737;49.908;8.126;2023-05-02T00:11:29;6.18;;;5.55;;
34491;SDS011;20737;49.908;8.126;2023-05-02T00:13:57;6.47;;;5.10;;
34491;SDS011;20737;49.908;8.126;2023-05-02T00:16:24;8.07;;;5.30;;
34491;SDS011;20737;49.908;8.126;2023-05-02T00:18:51;6.05;;;5.45;;
34491;SDS011;20737;49.908;8.126;2023-05-02T00:21:18;7.68;;;4.90;;
34491;SDS011;20737;49.908;8.126;2023-05-02T00:23:44;8.20;;;5.55;;
34491;SDS011;20737;49.908;8.126;2023-05-02T00:26:11;7.22;;;5.45;;
34491;SDS011;20737;49.908;8.126;2023-05-02T00:28:40;5.93;;;5.32;;
34491;SDS011;20737;49.908;8.126;2023-05-02T00:31:08;6.55;;;5.15;;
34491;SDS011;20737;49.908;8.126;2023-05-02T00:33:35;7.05;;;5.30;;
34491;SDS011;20737;49.908;8.126;2023-05-02T00:36:02;9.10;;;5.38;;
34491;SDS011;20737;49.908;8.126;2023-05-02T00:38:29;9.52;;;5.53;;
34491;SDS011;20737;49.908;8.126;2023-05-02T00:40:55;9.02;;;5.82;;
34491;SDS011;20737;49.908;8.126;2023-05-02T00:43:22;8.75;;;5.63;;
34491;SDS011;20737;49.908;8.126;2023-05-02T00:45:50;8.40;;;5.72;;
34491;SDS011;20737;49.908;8.126;2023-05-02T00:48:18;7.70;;;5.82;;
34491;SDS011;20737;49.908;8.126;2023-05-02T00:50:45;7.97;;;6.45;;
34491;SDS011;20737;49.908;8.126;2023-05-02T00:53:12;9.88;;;7.15;;
34491;SDS011;20737;49.908;8.126;2023-05-02T00:55:39;9.77;;;6.32;;
34491;SDS011;20737;49.908;8.126;2023-05-02T00:58:07;9.40;;;6.05;;
34491;SDS011;20737;49.908;8.126;2023-05-02T01:00:39;9.77;;;6.53;;
34491;SDS011;20737;49.908;8.126;2023-05-02T01:03:19;9.05;;;6.70;;
34491;SDS011;20737;49.908;8.126;2023-05-02T01:05:56;9.73;;;7.00;;
34491;SDS011;20737;49.908;8.126;2023-05-02T01:08:33;9.63;;;7.25;;
34491;SDS011;20737;49.908;8.126;2023-05-02T01:11:04;11.07;;;7.40;;
34491;SDS011;20737;49.908;8.126;2023-05-02T01:13:42;8.40;;;6.93;;
34491;SDS011;20737;49.908;8.126;2023-05-02T01:16:10;10.32;;;7.72;;
34491;SDS011;20737;49.908;8.126;2023-05-02T01:18:41;11.27;;;7.78;;
34491;SDS011;20737;49.908;8.126;2023-05-02T01:21:10;9.32;;;7.00;;
34491;SDS011;20737;49.908;8.126;2023-05-02T01:23:40;10.40;;;6.95;;
34491;SDS011;20737;49.908;8.126;2023-05-02T01:26:16;8.65;;;6.63;;
34491;SDS011;20737;49.908;8.126;2023-05-02T01:28:56;7.75;;;6.35;;
34491;SDS011;20737;49.908;8.126;2023-05-02T01:31:24;9.48;;;6.47;;
34491;SDS011;20737;49.908;8.126;2023-05-02T01:33:54;11.75;;;6.50;;
34491;SDS011;20737;49.908;8.126;2023-05-02T01:36:24;8.07;;;5.95;;
34491;SDS011;20737;49.908;8.126;2023-05-02T01:38:54;8.38;;;6.13;;
34491;SDS011;20737;49.908;8.126;2023-05-02T01:41:22;9.35;;;6.45;;
34491;SDS011;20737;49.908;8.126;2023-05-02T01:43:52;9.32;;;6.20;;
34491;SDS011;20737;49.908;8.126;2023-05-02T01:46:23;9.85;;;6.38;;
34491;SDS011;20737;49.908;8.126;2023-05-02T01:48:51;7.75;;;6.22;;
34491;SDS011;20737;49.908;8.126;2023-05-02T01:51:21;11.15;;;7.45;;
34491;SDS011;20737;49.908;8.126;2023-05-02T01:53:53;10.68;;;7.15;;
34491;SDS011;20737;49.908;8.126;2023-05-02T01:56:22;11.45;;;7.90;;
34491;SDS011;20737;49.908;8.126;2023-05-02T01:58:50;13.30;;;8.40;;
34491;SDS011;20737;49.908;8.126;2023-05-02T02:01:19;12.70;;;8.50;;
34491;SDS011;20737;49.908;8.126;2023-05-02T02:03:50;13.35;;;7.93;;
34491;SDS011;20737;49.908;8.126;2023-05-02T02:06:18;10.52;;;8.00;;
34491;SDS011;20737;49.908;8.126;2023-05-02T02:08:47;11.70;;;8.38;;
34491;SDS011;20737;49.908;8.126;2023-05-02T02:11:15;11.73;;;8.25;;
34491;SDS011;20737;49.908;8.126;2023-05-02T02:13:48;13.10;;;8.50;;
34491;SDS011;20737;49.908;8.126;2023-05-02T02:16:23;15.02;;;9.82;;
34491;SDS011;20737;49.908;8.126;2023-05-02T02:18:56;13.52;;;8.45;;
34491;SDS011;20737;49.908;8.126;2023-05-02T02:21:27;15.63;;;9.80;;
34491;SDS011;20737;49.908;8.126;2023-05-02T02:23:57;15.15;;;8.88;;
34491;SDS011;20737;49.908;8.126;2023-05-02T02:26:28;13.95;;;9.15;;
34491;SDS011;20737;49.908;8.126;2023-05-02T02:28:55;15.10;;;9.98;;
34491;SDS011;20737;49.908;8.126;2023-05-02T02:31:22;15.20;;;10.05;;
34491;SDS011;20737;49.908;8.126;2023-05-02T02:33:49;14.18;;;10.02;;
34491;SDS011;20737;49.908;8.126;2023-05-02T02:36:20;14.48;;;9.82;;
34491;SDS011;20737;49.908;8.126;2023-05-02T02:38:54;17.50;;;11.65;;
34491;SDS011;20737;49.908;8.126;2023-05-02T02:41:31;15.85;;;11.18;;
34491;SDS011;20737;49.908;8.126;2023-05-02T02:44:03;19.42;;;11.00;;
34491;SDS011;20737;49.908;8.126;2023-05-02T02:46:43;18.90;;;11.85;;
34491;SDS011;20737;49.908;8.126;2023-05-02T02:49:17;20.48;;;12.68;;
34491;SDS011;20737;49.908;8.126;2023-05-02T02:51:55;22.10;;;13.15;;
34491;SDS011;20737;49.908;8.126;2023-05-02T02:54:28;22.08;;;13.25;;
34491;SDS011;20737;49.908;8.126;2023-05-02T02:57:00;20.27;;;12.55;;
34491;SDS011;20737;49.908;8.126;2023-05-02T02:59:33;24.45;;;13.80;;
34491;SDS011;20737;49.908;8.126;2023-05-02T03:02:05;21.35;;;14.38;;
34491;SDS011;20737;49.908;8.126;2023-05-02T03:04:34;21.20;;;13.27;;
34491;SDS011;20737;49.908;8.126;2023-05-02T03:07:05;22.83;;;14.02;;
34491;SDS011;20737;49.908;8.126;2023-05-02T03:09:41;21.70;;;12.63;;
34491;SDS011;20737;49.908;8.126;2023-05-02T03:12:08;23.02;;;13.23;;
34491;SDS011;20737;49.908;8.126;2023-05-02T03:14:35;22.98;;;13.60;;
34491;SDS011;20737;49.908;8.126;2023-05-02T03:17:03;27.33;;;15.23;;
34491;SDS011;20737;49.908;8.126;2023-05-02T03:19:32;26.88;;;15.82;;
34491;SDS011;20737;49.908;8.126;2023-05-02T03:21:59;27.60;;;15.50;;
34491;SDS011;20737;49.908;8.126;2023-05-02T03:24:27;30.70;;;16.08;;
34491;SDS011;20737;49.908;8.126;2023-05-02T03:26:54;31.55;;;16.33;;
34491;SDS011;20737;49.908;8.126;2023-05-02T03:29:21;31.02;;;17.85;;
34491;SDS011;20737;49.908;8.126;2023-05-02T03:31:48;33.72;;;17.88;;
34491;SDS011;20737;49.908;8.126;2023-05-02T03:34:16;39.03;;;20.05;;
34491;SDS011;20737;49.908;8.126;2023-05-02T03:36:45;39.17;;;19.48;;
34491;SDS011;20737;49.908;8.126;2023-05-02T03:39:12;38.70;;;19.73;;
34491;SDS011;20737;49.908;8.126;2023-05-02T03:41:41;39.40;;;21.25;;
34491;SDS011;20737;49.908;8.126;2023-05-02T03:44:08;39.38;;;21.30;;
34491;SDS011;20737;49.908;8.126;2023-05-02T03:46:34;42.45;;;22.73;;
34491;SDS011;20737;49.908;8.126;2023-05-02T03:49:01;44.20;;;21.35;;
34491;SDS011;20737;49.908;8.126;2023-05-02T03:51:30;43.22;;;21.60;;
34491;SDS011;20737;49.908;8.126;2023-05-02T03:53:59;43.65;;;21.73;;
34491;SDS011;20737;49.908;8.126;2023-05-02T03:56:25;43.13;;;22.58;;
34491;SDS011;20737;49.908;8.126;2023-05-02T03:58:54;39.45;;;21.30;;
34491;SDS011;20737;49.908;8.126;2023-05-02T04:01:21;42.15;;;22.08;;
34491;SDS011;20737;49.908;8.126;2023-05-02T04:03:48;41.80;;;20.75;;
34491;SDS011;20737;49.908;8.126;2023-05-02T04:06:18;36.13;;;20.13;;
34491;SDS011;20737;49.908;8.126;2023-05-02T04:08:44;32.53;;;17.05;;
34491;SDS011;20737;49.908;8.126;2023-05-02T04:11:11;36.85;;;19.75;;
34491;SDS011;20737;49.908;8.126;2023-05-02T04:13:38;42.78;;;21.27;;
34491;SDS011;20737;49.908;8.126;2023-05-02T04:16:06;48.63;;;22.02;;
34491;SDS011;20737;49.908;8.126;2023-05-02T04:18:33;44.13;;;22.08;;
34491;SDS011;20737;49.908;8.126;2023-05-02T04:21:00;43.15;;;20.73;;
34491;SDS011;20737;49.908;8.126;2023-05-02T04:23:27;46.08;;;21.75;;
34491;SDS011;20737;49.908;8.126;2023-05-02T04:25:56;49.17;;;22.63;;
34491;SDS011;20737;49.908;8.126;2023-05-02T04:28:23;43.83;;;20.80;;
34491;SDS011;20737;49.908;8.126;2023-05-02T04:30:50;39.45;;;20.65;;
34491;SDS011;20737;49.908;8.126;2023-05-02T04:33:18;41.75;;;21.23;;
34491;SDS011;20737;49.908;8.126;2023-05-02T04:35:45;39.65;;;21.08;;
34491;SDS011;20737;49.908;8.126;2023-05-02T04:38:11;41.78;;;20.88;;
34491;SDS011;20737;49.908;8.126;2023-05-02T04:40:39;47.00;;;22.63;;
34491;SDS011;20737;49.908;8.126;2023-05-02T04:43:05;44.40;;;22.55;;
34491;SDS011;20737;49.908;8.126;2023-05-02T04:45:33;44.15;;;22.02;;
34491;SDS011;20737;49.908;8.126;2023-05-02T04:48:00;45.20;;;22.58;;
34491;SDS011;20737;49.908;8.126;2023-05-02T04:50:28;45.75;;;23.27;;
34491;SDS011;20737;49.908;8.126;2023-05-02T04:52:56;50.47;;;22.75;;
34491;SDS011;20737;49.908;8.126;2023-05-02T04:55:23;45.67;;;23.42;;
34491;SDS011;20737;49.908;8.126;2023-05-02T04:57:50;51.05;;;23.27;;
34491;SDS011;20737;49.908;8.126;2023-05-02T05:00:16;44.65;;;23.83;;
34491;SDS011;20737;49.908;8.126;2023-05-02T05:02:43;49.53;;;25.08;;
34491;SDS011;20737;49.908;8.126;2023-05-02T05:05:10;51.90;;;25.65;;
34491;SDS011;20737;49.908;8.126;2023-05-02T05:07:38;56.95;;;24.95;;
34491;SDS011;20737;49.908;8.126;2023-05-02T05:10:09;58.70;;;26.90;;
34491;SDS011;20737;49.908;8.126;2023-05-02T05:12:36;53.92;;;28.15;;
34491;SDS011;20737;49.908;8.126;2023-05-02T05:15:03;60.72;;;27.58;;
34491;SDS011;20737;49.908;8.126;2023-05-02T05:17:30;67.00;;;29.75;;
34491;SDS011;20737;49.908;8.126;2023-05-02T05:19:57;58.80;;;29.92;;
34491;SDS011;20737;49.908;8.126;2023-05-02T05:22:24;56.85;;;28.48;;
34491;SDS011;20737;49.908;8.126;2023-05-02T05:24:53;66.53;;;29.40;;
34491;SDS011;20737;49.908;8.126;2023-05-02T05:27:20;58.70;;;28.67;;
34491;SDS011;20737;49.908;8.126;2023-05-02T05:29:46;60.35;;;30.05;;
34491;SDS011;20737;49.908;8.126;2023-05-02T05:32:13;57.78;;;28.52;;
34491;SDS011;20737;49.908;8.126;2023-05-02T05:34:40;60.70;;;27.40;;
34491;SDS011;20737;49.908;8.126;2023-05-02T05:37:07;62.20;;;30.08;;
34491;SDS011;20737;49.908;8.126;2023-05-02T05:39:33;53.00;;;27.17;;
34491;SDS011;20737;49.908;8.126;2023-05-02T05:42:02;53.08;;;26.50;;
34491;SDS011;20737;49.908;8.126;2023-05-02T05:44:30;55.25;;;27.95;;
34491;SDS011;20737;49.908;8.126;2023-05-02T05:46:56;51.55;;;25.17;;
34491;SDS011;20737;49.908;8.126;2023-05-02T05:49:23;62.05;;;28.20;;
34491;SDS011;20737;49.908;8.126;2023-05-02T05:51:50;55.13;;;26.20;;
34491;SDS011;20737;49.908;8.126;2023-05-02T05:54:16;60.78;;;29.25;;
34491;SDS011;20737;49.908;8.126;2023-05-02T05:56:43;51.42;;;26.80;;
34491;SDS011;20737;49.908;8.126;2023-05-02T05:59:12;55.10;;;27.25;;
34491;SDS011;20737;49.908;8.126;2023-05-02T06:01:39;57.42;;;27.08;;
34491;SDS011;20737;49.908;8.126;2023-05-02T06:04:06;50.60;;;25.63;;
34491;SDS011;20737;49.908;8.126;2023-05-02T06:06:32;55.33;;;28.02;;
34491;SDS011;20737;49.908;8.126;2023-05-02T06:09:00;53.95;;;27.02;;
34491;SDS011;20737;49.908;8.126;2023-05-02T06:11:27;55.70;;;27.33;;
34491;SDS011;20737;49.908;8.126;2023-05-02T06:13:53;58.70;;;27.25;;
34491;SDS011;20737;49.908;8.126;2023-05-02T06:16:21;57.63;;;27.20;;
34491;SDS011;20737;49.908;8.126;2023-05-02T06:18:49;51.45;;;26.02;;
34491;SDS011;20737;49.908;8.126;2023-05-02T06:21:17;46.97;;;24.65;;
34491;SDS011;20737;49.908;8.126;2023-05-02T06:23:43;51.65;;;25.55;;
34491;SDS011;20737;49.908;8.126;2023-05-02T06:26:10;49.72;;;26.55;;
34491;SDS011;20737;49.908;8.126;2023-05-02T06:28:37;52.80;;;25.63;;
34491;SDS011;20737;49.908;8.126;2023-05-02T06:31:04;49.45;;;25.23;;
34491;SDS011;20737;49.908;8.126;2023-05-02T06:33:33;49.10;;;25.58;;
34491;SDS011;20737;49.908;8.126;2023-05-02T06:35:59;49.80;;;25.85;;
34491;SDS011;20737;49.908;8.126;2023-05-02T06:38:26;51.13;;;26.40;;
34491;SDS011;20737;49.908;8.126;2023-05-02T06:40:53;46.60;;;25.67;;
34491;SDS011;20737;49.908;8.126;2023-05-02T06:43:20;48.35;;;24.17;;
34491;SDS011;20737;49.908;8.126;2023-05-02T06:45:47;42.70;;;22.85;;
34491;SDS011;20737;49.908;8.126;2023-05-02T06:48:13;44.63;;;22.75;;
34491;SDS011;20737;49.908;8.126;2023-05-02T06:50:41;47.35;;;25.48;;
34491;SDS011;20737;49.908;8.126;2023-05-02T06:53:08;48.00;;;24.60;;
34491;SDS011;20737;49.908;8.126;2023-05-02T06:55:35;44.75;;;23.52;;
34491;SDS011;20737;49.908;8.126;2023-05-02T06:58:02;43.25;;;23.27;;
34491;SDS011;20737;49.908;8.126;2023-05-02T07:00:28;42.85;;;23.17;;
34491;SDS011;20737;49.908;8.126;2023-05-02T07:02:55;42.50;;;22.20;;
34491;SDS011;20737;49.908;8.126;2023-05-02T07:05:22;41.90;;;22.25;;
34491;SDS011;20737;49.908;8.126;2023-05-02T07:07:50;45.58;;;23.58;;
34491;SDS011;20737;49.908;8.126;2023-05-02T07:10:17;39.35;;;19.73;;
34491;SDS011;20737;49.908;8.126;2023-05-02T07:12:43;39.72;;;21.30;;
34491;SDS011;20737;49.908;8.126;2023-05-02T07:15:10;38.65;;;21.23;;
34491;SDS011;20737;49.908;8.126;2023-05-02T07:17:37;42.58;;;21.48;;
34491;SDS011;20737;49.908;8.126;2023-05-02T07:20:05;36.13;;;19.60;;
34491;SDS011;20737;49.908;8.126;2023-05-02T07:22:33;40.50;;;20.92;;
34491;SDS011;20737;49.908;8.126;2023-05-02T07:25:01;35.92;;;18.40;;
34491;SDS011;20737;49.908;8.126;2023-05-02T07:27:28;37.78;;;19.90;;
34491;SDS011;20737;49.908;8.126;2023-05-02T07:29:57;38.50;;;19.27;;
34491;SDS011;20737;49.908;8.126;2023-05-02T07:32:30;38.35;;;19.50;;
34491;SDS011;20737;49.908;8.126;2023-05-02T07:35:01;32.85;;;18.02;;
34491;SDS011;20737;49.908;8.126;2023-05-02T07:37:31;35.63;;;17.80;;
34491;SDS011;20737;49.908;8.126;2023-05-02T07:40:00;31.73;;;17.50;;
34491;SDS011;20737;49.908;8.126;2023-05-02T07:42:28;34.85;;;17.45;;
34491;SDS011;20737;49.908;8.126;2023-05-02T07:44:55;37.05;;;18.38;;
34491;SDS011;20737;49.908;8.126;2023-05-02T07:47:21;36.85;;;17.77;;
34491;SDS011;20737;49.908;8.126;2023-05-02T07:49:49;35.08;;;17.83;;
34491;SDS011;20737;49.908;8.126;2023-05-02T07:52:16;37.63;;;18.80;;
34491;SDS011;20737;49.908;8.126;2023-05-02T07:54:43;35.13;;;18.15;;
34491;SDS011;20737;49.908;8.126;2023-05-02T07:57:12;36.40;;;18.08;;
34491;SDS011;20737;49.908;8.126;2023-05-02T07:59:38;28.88;;;15.07;;
34491;SDS011;20737;49.908;8.126;2023-05-02T08:02:05;25.58;;;13.63;;
34491;SDS011;20737;49.908;8.126;2023-05-02T08:04:32;30.83;;;14.30;;
34491;SDS011;20737;49.908;8.126;2023-05-02T08:06:59;38.05;;;17.10;;
34491;SDS011;20737;49.908;8.126;2023-05-02T08:09:26;31.02;;;15.35;;
34491;SDS011;20737;49.908;8.126;2023-05-02T08:11:52;32.80;;;16.70;;
34491;SDS011;20737;49.908;8.126;2023-05-02T08:14:20;31.25;;;15.15;;
34491;SDS011;20737;49.908;8.126;2023-05-02T08:16:47;33.55;;;15.68;;
34491;SDS011;20737;49.908;8.126;2023-05-02T08:19:14;41.95;;;17.00;;
34491;SDS011;20737;49.908;8.126;2023-05-02T08:21:41;32.65;;;15.90;;
34491;SDS011;20737;49.908;8.126;2023-05-02T08:24:07;25.90;;;13.00;;
34491;SDS011;20737;49.908;8.126;2023-05-02T08:26:34;29.13;;;13.52;;
34491;SDS011;20737;49.908;8.126;2023-05-02T08:29:01;29.58;;;12.82;;
34491;SDS011;20737;49.908;8.126;2023-05-02T08:31:29;28.85;;;12.52;;
34491;SDS011;20737;49.908;8.126;2023-05-02T08:33:57;27.15;;;13.43;;
34491;SDS011;20737;49.908;8.126;2023-05-02T08:36:24;27.63;;;13.32;;
34491;SDS011;20737;49.908;8.126;2023-05-02T08:38:52;29.20;;;13.77;;
34491;SDS011;20737;49.908;8.126;2023-05-02T08:41:19;28.90;;;13.25;;
34491;SDS011;20737;49.908;8.126;2023-05-02T08:43:47;30.05;;;13.23;;
34491;SDS011;20737;49.908;8.126;2023-05-02T08:46:14;23.63;;;10.95;;
34491;SDS011;20737;49.908;8.126;2023-05-02T08:48:44;26.00;;;11.55;;
34491;SDS011;20737;49.908;8.126;2023-05-02T08:51:13;25.27;;;11.20;;
34491;SDS011;20737;49.908;8.126;2023-05-02T08:53:40;22.35;;;10.88;;
34491;SDS011;20737;49.908;8.126;2023-05-02T08:56:08;22.38;;;10.77;;
34491;SDS011;20737;49.908;8.126;2023-05-02T08:58:36;23.58;;;9.88;;
34491;SDS011;20737;49.908;8.126;2023-05-02T09:01:08;22.80;;;9.95;;
34491;SDS011;20737;49.908;8.126;2023-05-02T09:03:35;19.90;;;9.77;;
34491;SDS011;20737;49.908;8.126;2023-05-02T09:06:07;18.27;;;8.90;;
34491;SDS011;20737;49.908;8.126;2023-05-02T09:08:36;21.73;;;9.90;;
34491;SDS011;20737;49.908;8.126;2023-05-02T09:11:04;22.25;;;10.68;;
34491;SDS011;20737;49.908;8.126;2023-05-02T09:13:32;23.20;;;10.63;;
34491;SDS011;20737;49.908;8.126;2023-05-02T09:16:01;17.85;;;8.85;;
34491;SDS011;20737;49.908;8.126;2023-05-02T09:18:30;13.40;;;8.80;;
34491;SDS011;20737;49.908;8.126;2023-05-02T09:20:59;14.65;;;8.10;;
34491;SDS011;20737;49.908;8.126;2023-05-02T09:23:35;16.23;;;9.30;;
34491;SDS011;20737;49.908;8.126;2023-05-02T09:26:15;15.13;;;9.07;;
34491;SDS011;20737;49.908;8.126;2023-05-02T09:28:44;14.38;;;8.30;;
34491;SDS011;20737;49.908;8.126;2023-05-02T09:31:12;17.83;;;9.02;;
34491;SDS011;20737;49.908;8.126;2023-05-02T09:33:39;16.38;;;8.20;;
34491;SDS011;20737;49.908;8.126;2023-05-02T09:36:09;16.65;;;9.10;;
34491;SDS011;20737;49.908;8.126;2023-05-02T09:38:39;14.93;;;8.30;;
34491;SDS011;20737;49.908;8.126;2023-05-02T09:41:06;13.45;;;7.65;;
34491;SDS011;20737;49.908;8.126;2023-05-02T09:43:33;13.05;;;6.85;;
34491;SDS011;20737;49.908;8.126;2023-05-02T09:46:01;9.48;;;6.45;;
34491;SDS011;20737;49.908;8.126;2023-05-02T09:48:29;11.02;;;7.05;;
34491;SDS011;20737;49.908;8.126;2023-05-02T09:50:56;12.52;;;7.63;;
34491;SDS011;20737;49.908;8.126;2023-05-02T09:53:24;12.20;;;7.10;;
34491;SDS011;20737;49.908;8.126;2023-05-02T09:55:59;10.77;;;7.10;;
34491;SDS011;20737;49.908;8.126;2023-05-02T09:58:29;10.40;;;6.82;;
34491;SDS011;20737;49.908;8.126;2023-05-02T10:00:56;12.38;;;7.45;;
34491;SDS011;20737;49.908;8.126;2023-05-02T10:03:24;10.88;;;7.30;;
34491;SDS011;20737;49.908;8.126;2023-05-02T10:05:51;13.40;;;7.55;;
34491;SDS011;20737;49.908;8.126;2023-05-02T10:08:19;10.45;;;6.90;;
34491;SDS011;20737;49.908;8.126;2023-05-02T10:10:49;10.90;;;6.38;;
34491;SDS011;20737;49.908;8.126;2023-05-02T10:13:20;13.95;;;8.25;;
34491;SDS011;20737;49.908;8.126;2023-05-02T10:15:49;12.55;;;7.35;;
34491;SDS011;20737;49.908;8.126;2023-05-02T10:18:20;12.30;;;7.38;;
34491;SDS011;20737;49.908;8.126;2023-05-02T10:20:54;10.27;;;5.68;;
34491;SDS011;20737;49.908;8.126;2023-05-02T10:23:26;8.98;;;5.78;;
34491;SDS011;20737;49.908;8.126;2023-05-02T10:25:54;11.20;;;6.00;;
34491;SDS011;20737;49.908;8.126;2023-05-02T10:28:24;9.52;;;5.70;;
34491;SDS011;20737;49.908;8.126;2023-05-02T10:30:52;8.77;;;4.95;;
34491;SDS011;20737;49.908;8.126;2023-05-02T10:33:19;8.75;;;6.28;;
34491;SDS011;20737;49.908;8.126;2023-05-02T10:35:46;9.35;;;6.43;;
34491;SDS011;20737;49.908;8.126;2023-05-02T10:38:15;9.02;;;5.38;;
34491;SDS011;20737;49.908;8.126;2023-05-02T10:40:51;9.20;;;5.95;;
34491;SDS011;20737;49.908;8.126;2023-05-02T10:43:24;10.38;;;6.40;;
34491;SDS011;20737;49.908;8.126;2023-05-02T10:45:53;13.50;;;8.00;;
34491;SDS011;20737;49.908;8.126;2023-05-02T10:48:21;9.57;;;6.40;;
34491;SDS011;20737;49.908;8.126;2023-05-02T10:50:50;10.23;;;6.68;;
34491;SDS011;20737;49.908;8.126;2023-05-02T10:53:20;11.60;;;6.30;;
34491;SDS011;20737;49.908;8.126;2023-05-02T10:58:35;8.48;;;5.97;;
34491;SDS011;20737;49.908;8.126;2023-05-02T11:04:10;9.52;;;5.80;;
34491;SDS011;20737;49.908;8.126;2023-05-02T11:07:15;9.95;;;5.45;;
34491;SDS011;20737;49.908;8.126;2023-05-02T11:09:42;8.80;;;5.53;;
34491;SDS011;20737;49.908;8.126;2023-05-02T11:12:09;9.27;;;6.18;;
34491;SDS011;20737;49.908;8.126;2023-05-02T11:14:43;11.02;;;6.20;;
34491;SDS011;20737;49.908;8.126;2023-05-02T11:17:14;9.65;;;6.57;;
34491;SDS011;20737;49.908;8.126;2023-05-02T11:22:48;8.85;;;6.70;;
34491;SDS011;20737;49.908;8.126;2023-05-02T11:28:07;8.80;;;7.18;;
34491;SDS011;20737;49.908;8.126;2023-05-02T11:31:09;7.57;;;6.10;;
34491;SDS011;20737;49.908;8.126;2023-05-02T11:33:57;8.93;;;6.85;;
34491;SDS011;20737;49.908;8.126;2023-05-02T11:36:27;10.20;;;7.43;;
34491;SDS011;20737;49.908;8.126;2023-05-02T11:38:54;9.02;;;6.78;;
34491;SDS011;20737;49.908;8.126;2023-05-02T11:41:21;7.97;;;6.47;;
34491;SDS011;20737;49.908;8.126;2023-05-02T11:43:49;8.32;;;6.55;;
34491;SDS011;20737;49.908;8.126;2023-05-02T11:46:29;8.20;;;6.22;;
34491;SDS011;20737;49.908;8.126;2023-05-02T11:48:56;7.13;;;6.20;;
34491;SDS011;20737;49.908;8.126;2023-05-02T11:51:23;8.00;;;6.53;;
34491;SDS011;20737;49.908;8.126;2023-05-02T11:53:50;8.18;;;6.78;;
34491;SDS011;20737;49.908;8.126;2023-05-02T11:56:21;8.88;;;7.03;;
34491;SDS011;20737;49.908;8.126;2023-05-02T11:58:56;8.60;;;6.13;;
34491;SDS011;20737;49.908;8.126;2023-05-02T12:03:52;7.78;;;6.22;;
34491;SDS011;20737;49.908;8.126;2023-05-02T12:06:27;9.52;;;6.00;;
34491;SDS011;20737;49.908;8.126;2023-05-02T12:09:04;6.68;;;4.45;;
34491;SDS011;20737;49.908;8.126;2023-05-02T12:11:32;4.35;;;2.90;;
34491;SDS011;20737;49.908;8.126;2023-05-02T12:13:59;2.78;;;2.00;;
34491;SDS011;20737;49.908;8.126;2023-05-02T12:16:25;3.20;;;2.40;;
34491;SDS011;20737;49.908;8.126;2023-05-02T12:18:53;3.85;;;2.28;;
34491;SDS011;20737;49.908;8.126;2023-05-02T12:21:23;2.97;;;2.30;;
34491;SDS011;20737;49.908;8.126;2023-05-02T12:23:50;3.67;;;2.05;;
34491;SDS011;20737;49.908;8.126;2023-05-02T12:26:18;3.10;;;2.15;;
34491;SDS011;20737;49.908;8.126;2023-05-02T12:28:49;4.10;;;2.33;;
34491;SDS011;20737;49.908;8.126;2023-05-02T12:31:18;3.05;;;1.98;;
34491;SDS011;20737;49.908;8.126;2023-05-02T12:33:45;3.65;;;2.22;;
34491;SDS011;20737;49.908;8.126;2023-05-02T12:36:15;3.08;;;1.90;;
34491;SDS011;20737;49.908;8.126;2023-05-02T12:38:46;2.80;;;2.33;;
34491;SDS011;20737;49.908;8.126;2023-05-02T12:41:15;3.45;;;2.50;;
34491;SDS011;20737;49.908;8.126;2023-05-02T12:43:42;2.90;;;2.20;;
34491;SDS011;20737;49.908;8.126;2023-05-02T12:46:11;2.88;;;2.08;;
34491;SDS011;20737;49.908;8.126;2023-05-02T12:48:37;2.25;;;1.85;;
34491;SDS011;20737;49.908;8.126;2023-05-02T12:51:04;3.45;;;2.65;;
34491;SDS011;20737;49.908;8.126;2023-05-02T12:53:39;4.93;;;3.10;;
34491;SDS011;20737;49.908;8.126;2023-05-02T12:56:07;2.75;;;2.10;;
34491;SDS011;20737;49.908;8.126;2023-05-02T12:58:41;2.95;;;2.30;;
34491;SDS011;20737;49.908;8.126;2023-05-02T13:01:10;2.55;;;1.92;;
34491;SDS011;20737;49.908;8.126;2023-05-02T13:03:37;1.73;;;1.63;;
34491;SDS011;20737;49.908;8.126;2023-05-02T13:06:04;2.10;;;1.60;;
34491;SDS011;20737;49.908;8.126;2023-05-02T13:08:31;3.17;;;2.17;;
34491;SDS011;20737;49.908;8.126;2023-05-02T13:11:00;2.20;;;2.00;;
34491;SDS011;20737;49.908;8.126;2023-05-02T13:13:27;3.05;;;1.80;;
34491;SDS011;20737;49.908;8.126;2023-05-02T13:15:55;2.55;;;2.08;;
34491;SDS011;20737;49.908;8.126;2023-05-02T13:18:21;2.35;;;2.05;;
34491;SDS011;20737;49.908;8.126;2023-05-02T13:20:49;3.83;;;2.13;;
34491;SDS011;20737;49.908;8.126;2023-05-02T13:23:15;3.55;;;2.30;;
34491;SDS011;20737;49.908;8.126;2023-05-02T13:25:42;3.28;;;2.33;;
34491;SDS011;20737;49.908;8.126;2023-05-02T13:28:10;3.15;;;2.65;;
34491;SDS011;20737;49.908;8.126;2023-05-02T13:30:37;4.45;;;2.47;;
34491;SDS011;20737;49.908;8.126;2023-05-02T13:33:03;3.72;;;2.53;;
34491;SDS011;20737;49.908;8.126;2023-05-02T13:35:30;3.58;;;2.78;;
34491;SDS011;20737;49.908;8.126;2023-05-02T13:37:57;3.63;;;2.90;;
34491;SDS011;20737;49.908;8.126;2023-05-02T13:40:24;4.90;;;3.78;;
34491;SDS011;20737;49.908;8.126;2023-05-02T13:42:51;6.45;;;3.92;;
34491;SDS011;20737;49.908;8.126;2023-05-02T13:45:21;7.00;;;3.60;;
34491;SDS011;20737;49.908;8.126;2023-05-02T13:47:48;4.88;;;3.78;;
34491;SDS011;20737;49.908;8.126;2023-05-02T13:50:14;5.82;;;4.53;;
34491;SDS011;20737;49.908;8.126;2023-05-02T13:52:41;5.80;;;4.45;;
34491;SDS011;20737;49.908;8.126;2023-05-02T13:55:10;5.60;;;4.00;;
34491;SDS011;20737;49.908;8.126;2023-05-02T13:57:37;5.63;;;3.88;;
34491;SDS011;20737;49.908;8.126;2023-05-02T14:00:11;7.75;;;4.60;;
34491;SDS011;20737;49.908;8.126;2023-05-02T14:02:41;4.65;;;3.50;;
34491;SDS011;20737;49.908;8.126;2023-05-02T14:05:10;6.70;;;3.80;;
34491;SDS011;20737;49.908;8.126;2023-05-02T14:07:37;4.10;;;3.45;;
34491;SDS011;20737;49.908;8.126;2023-05-02T14:10:04;5.70;;;4.10;;
34491;SDS011;20737;49.908;8.126;2023-05-02T14:12:31;4.90;;;3.15;;
34491;SDS011;20737;49.908;8.126;2023-05-02T14:14:58;4.53;;;3.25;;
34491;SDS011;20737;49.908;8.126;2023-05-02T14:17:25;5.05;;;3.30;;
34491;SDS011;20737;49.908;8.126;2023-05-02T14:19:53;3.25;;;2.80;;
34491;SDS011;20737;49.908;8.126;2023-05-02T14:22:20;4.40;;;3.45;;
34491;SDS011;20737;49.908;8.126;2023-05-02T14:24:46;6.38;;;3.00;;
34491;SDS011;20737;49.908;8.126;2023-05-02T14:27:15;3.30;;;2.55;;
34491;SDS011;20737;49.908;8.126;2023-05-02T14:29:43;3.13;;;2.83;;
34491;SDS011;20737;49.908;8.126;2023-05-02T14:32:10;3.40;;;2.47;;
34491;SDS011;20737;49.908;8.126;2023-05-02T14:34:36;4.63;;;2.75;;
34491;SDS011;20737;49.908;8.126;2023-05-02T14:37:05;3.15;;;2.83;;
34491;SDS011;20737;49.908;8.126;2023-05-02T14:39:32;3.90;;;2.53;;
34491;SDS011;20737;49.908;8.126;2023-05-02T14:42:00;2.85;;;2.60;;
34491;SDS011;20737;49.908;8.126;2023-05-02T14:44:27;3.67;;;2.50;;
34491;SDS011;20737;49.908;8.126;2023-05-02T14:46:53;3.25;;;2.40;;
34491;SDS011;20737;49.908;8.126;2023-05-02T14:49:20;5.65;;;2.72;;
34491;SDS011;20737;49.908;8.126;2023-05-02T14:51:48;7.32;;;3.10;;
34491;SDS011;20737;49.908;8.126;2023-05-02T14:54:16;4.57;;;2.90;;
34491;SDS011;20737;49.908;8.126;2023-05-02T14:56:44;2.88;;;2.40;;